createdAt,value
2017-12-31T00:00:58.523Z,9.68
2017-12-31T00:01:58.319Z,9.65
2017-12-31T00:02:58.071Z,9.64
2017-12-31T00:03:57.991Z,9.64
2017-12-31T00:04:57.803Z,9.69
2017-12-31T00:05:58.063Z,9.69
2017-12-31T00:06:58.486Z,9.72
2017-12-31T00:07:58.989Z,9.72
2017-12-31T00:08:58.559Z,9.72
2017-12-31T00:09:59.461Z,9.69
2017-12-31T00:10:58.614Z,9.68
2017-12-31T00:11:59.385Z,9.65
2017-12-31T00:12:58.692Z,9.59
2017-12-31T00:13:57.661Z,9.59
2017-12-31T00:14:58.661Z,9.59
2017-12-31T00:15:58.518Z,9.59
2017-12-31T00:17:00.128Z,9.56
2017-12-31T00:17:58.660Z,9.55
2017-12-31T00:18:58.917Z,9.55
2017-12-31T00:19:58.242Z,9.47
2017-12-31T00:20:58.394Z,9.46
2017-12-31T00:21:58.740Z,9.41
2017-12-31T00:22:59.231Z,9.40
2017-12-31T00:23:58.501Z,9.37
2017-12-31T00:24:58.854Z,9.36
2017-12-31T00:25:58.164Z,9.34
2017-12-31T00:26:59.211Z,9.40
2017-12-31T00:28:09.084Z,9.41
2017-12-31T00:29:06.618Z,9.41
2017-12-31T00:29:58.829Z,9.39
2017-12-31T00:31:00.439Z,9.44
2017-12-31T00:31:58.091Z,9.50
2017-12-31T00:32:58.121Z,9.50
2017-12-31T00:33:58.209Z,9.47
2017-12-31T00:34:58.466Z,9.40
2017-12-31T00:35:58.824Z,9.34
2017-12-31T00:36:57.641Z,9.31
2017-12-31T00:38:20.690Z,9.25
2017-12-31T00:39:21.009Z,9.21
2017-12-31T00:40:21.266Z,9.14
2017-12-31T00:41:20.143Z,9.13
2017-12-31T00:42:20.934Z,9.11
2017-12-31T00:43:21.220Z,9.13
2017-12-31T00:44:21.543Z,9.13
2017-12-31T00:45:20.713Z,9.10
2017-12-31T00:46:20.876Z,9.10
2017-12-31T00:47:20.995Z,9.16
2017-12-31T00:48:20.868Z,9.22
2017-12-31T00:49:21.438Z,9.21
2017-12-31T00:50:20.873Z,9.18
2017-12-31T00:51:20.867Z,9.14
2017-12-31T00:52:20.875Z,9.14
2017-12-31T00:53:20.851Z,9.11
2017-12-31T00:54:20.905Z,9.06
2017-12-31T00:55:21.059Z,9.02
2017-12-31T00:56:21.159Z,9.03
2017-12-31T00:57:21.268Z,9.04
2017-12-31T00:58:20.802Z,9.03
2017-12-31T00:59:21.248Z,9.03
2017-12-31T01:00:42.243Z,9.08
2017-12-31T01:01:41.931Z,9.10
2017-12-31T01:02:41.858Z,9.08
2017-12-31T01:03:41.997Z,9.04
2017-12-31T01:04:42.035Z,9.03
2017-12-31T01:05:41.681Z,9.08
2017-12-31T01:06:43.138Z,9.04
2017-12-31T01:07:42.088Z,9.04
2017-12-31T01:08:42.344Z,9.03
2017-12-31T01:09:42.788Z,9.04
2017-12-31T01:10:43.151Z,9.08
2017-12-31T01:11:42.293Z,9.11
2017-12-31T01:12:42.121Z,9.08
2017-12-31T01:13:42.171Z,9.10
2017-12-31T01:14:42.580Z,9.13
2017-12-31T01:15:42.921Z,9.13
2017-12-31T01:16:42.252Z,9.11
2017-12-31T01:17:42.349Z,9.11
2017-12-31T01:18:41.989Z,9.13
2017-12-31T01:19:42.139Z,9.11
2017-12-31T01:20:42.617Z,9.10
2017-12-31T01:21:42.599Z,9.11
2017-12-31T01:22:42.190Z,9.16
2017-12-31T01:23:42.231Z,9.16
2017-12-31T01:24:42.600Z,9.16
2017-12-31T01:25:43.302Z,9.16
2017-12-31T01:26:42.381Z,9.18
2017-12-31T01:27:42.381Z,9.19
2017-12-31T01:28:42.028Z,9.21
2017-12-31T01:29:42.003Z,9.19
2017-12-31T01:31:03.508Z,9.19
2017-12-31T01:32:04.519Z,9.21
2017-12-31T01:33:04.854Z,9.22
2017-12-31T01:34:05.177Z,9.23
2017-12-31T01:35:03.844Z,9.23
2017-12-31T01:36:04.414Z,9.21
2017-12-31T01:37:04.770Z,9.25
2017-12-31T01:38:04.217Z,9.28
2017-12-31T01:39:04.538Z,9.28
2017-12-31T01:40:04.577Z,9.28
2017-12-31T01:41:04.315Z,9.28
2017-12-31T01:42:04.057Z,9.29
2017-12-31T01:43:25.648Z,9.28
2017-12-31T01:44:27.029Z,9.28
2017-12-31T01:45:26.239Z,9.25
2017-12-31T01:46:26.662Z,9.25
2017-12-31T01:47:26.617Z,9.23
2017-12-31T01:48:26.045Z,9.23
2017-12-31T01:49:26.142Z,9.22
2017-12-31T01:50:25.714Z,9.22
2017-12-31T01:51:26.170Z,9.23
2017-12-31T01:52:25.882Z,9.23
2017-12-31T01:53:25.895Z,9.22
2017-12-31T01:54:25.644Z,9.21
2017-12-31T01:55:26.054Z,9.25
2017-12-31T01:56:26.832Z,9.29
2017-12-31T01:57:29.789Z,9.32
2017-12-31T01:58:26.180Z,9.37
2017-12-31T01:59:25.989Z,9.39
2017-12-31T02:00:26.413Z,9.39
2017-12-31T02:01:26.458Z,9.37
2017-12-31T02:02:26.907Z,9.37
2017-12-31T02:03:25.957Z,9.36
2017-12-31T02:04:25.753Z,9.37
2017-12-31T02:05:26.138Z,9.37
2017-12-31T02:06:26.637Z,9.39
2017-12-31T02:07:26.643Z,9.41
2017-12-31T02:08:27.027Z,9.40
2017-12-31T02:09:26.096Z,9.40
2017-12-31T02:10:26.075Z,9.46
2017-12-31T02:11:26.217Z,9.46
2017-12-31T02:12:26.700Z,9.46
2017-12-31T02:13:48.462Z,9.48
2017-12-31T02:14:48.822Z,9.51
2017-12-31T02:15:48.184Z,9.51
2017-12-31T02:16:48.467Z,9.51
2017-12-31T02:17:48.948Z,9.55
2017-12-31T02:18:47.831Z,9.58
2017-12-31T02:19:47.720Z,9.58
2017-12-31T02:20:48.258Z,9.61
2017-12-31T02:21:48.000Z,9.59
2017-12-31T02:22:47.723Z,9.61
2017-12-31T02:23:48.030Z,9.62
2017-12-31T02:24:48.555Z,9.62
2017-12-31T02:25:49.116Z,9.61
2017-12-31T02:26:48.198Z,9.64
2017-12-31T02:27:47.979Z,9.66
2017-12-31T02:29:09.484Z,9.66
2017-12-31T02:30:10.151Z,9.68
2017-12-31T02:31:10.052Z,9.66
2017-12-31T02:32:09.735Z,9.65
2017-12-31T02:33:10.060Z,9.64
2017-12-31T02:34:10.841Z,9.62
2017-12-31T02:35:10.115Z,9.64
2017-12-31T02:36:10.510Z,9.68
2017-12-31T02:37:10.379Z,9.72
2017-12-31T02:38:10.348Z,9.73
2017-12-31T02:39:11.075Z,9.69
2017-12-31T02:40:10.416Z,9.66
2017-12-31T02:41:10.820Z,9.66
2017-12-31T02:42:10.168Z,9.66
2017-12-31T02:43:09.904Z,9.66
2017-12-31T02:44:10.493Z,9.64
2017-12-31T02:45:10.852Z,9.65
2017-12-31T02:46:09.992Z,9.65
2017-12-31T02:47:09.575Z,9.65
2017-12-31T02:48:09.418Z,9.65
2017-12-31T02:49:10.225Z,9.62
2017-12-31T02:50:10.269Z,9.61
2017-12-31T02:51:10.678Z,9.62
2017-12-31T02:52:10.115Z,9.61
2017-12-31T02:53:09.953Z,9.61
2017-12-31T02:54:10.142Z,9.62
2017-12-31T02:55:10.044Z,9.61
2017-12-31T02:56:10.444Z,9.56
2017-12-31T02:57:10.008Z,9.56
2017-12-31T02:58:09.926Z,9.56
2017-12-31T02:59:09.602Z,9.56
2017-12-31T03:00:30.796Z,9.59
2017-12-31T03:01:32.736Z,9.61
2017-12-31T03:02:31.486Z,9.61
2017-12-31T03:03:31.179Z,9.62
2017-12-31T03:04:30.908Z,9.56
2017-12-31T03:05:31.895Z,9.59
2017-12-31T03:06:32.021Z,9.59
2017-12-31T03:07:31.714Z,9.58
2017-12-31T03:08:32.137Z,9.58
2017-12-31T03:09:31.997Z,9.58
2017-12-31T03:10:32.286Z,9.59
2017-12-31T03:11:31.099Z,9.58
2017-12-31T03:12:32.246Z,9.62
2017-12-31T03:13:52.420Z,9.65
2017-12-31T03:14:53.284Z,9.66
2017-12-31T03:15:53.775Z,9.64
2017-12-31T03:16:53.410Z,9.65
2017-12-31T03:17:53.037Z,9.61
2017-12-31T03:18:53.428Z,9.56
2017-12-31T03:19:53.467Z,9.55
2017-12-31T03:20:53.234Z,9.50
2017-12-31T03:21:53.142Z,9.47
2017-12-31T03:22:52.864Z,9.47
2017-12-31T03:23:53.224Z,9.47
2017-12-31T03:24:52.802Z,9.44
2017-12-31T03:25:53.250Z,9.41
2017-12-31T03:26:53.104Z,9.39
2017-12-31T03:27:52.840Z,9.34
2017-12-31T03:28:52.931Z,9.32
2017-12-31T03:29:52.738Z,9.29
2017-12-31T03:30:53.567Z,9.26
2017-12-31T03:31:53.655Z,9.22
2017-12-31T03:32:53.749Z,9.19
2017-12-31T03:33:53.282Z,9.19
2017-12-31T03:35:00.249Z,9.19
2017-12-31T03:37:32.693Z,9.16
2017-12-31T03:38:33.920Z,9.13
2017-12-31T03:39:54.417Z,9.10
2017-12-31T03:40:55.828Z,9.06
2017-12-31T03:41:54.860Z,9.02
2017-12-31T03:42:55.375Z,8.99
2017-12-31T03:43:55.280Z,8.97
2017-12-31T03:44:55.585Z,8.94
2017-12-31T03:45:55.720Z,8.92
2017-12-31T03:46:55.952Z,8.91
2017-12-31T03:47:55.287Z,8.88
2017-12-31T03:48:54.800Z,8.87
2017-12-31T03:49:55.265Z,8.85
2017-12-31T03:50:55.606Z,8.82
2017-12-31T03:51:55.357Z,8.81
2017-12-31T03:52:56.044Z,8.79
2017-12-31T03:53:54.859Z,8.78
2017-12-31T03:54:54.636Z,8.76
2017-12-31T03:55:54.409Z,8.76
2017-12-31T03:56:55.575Z,8.73
2017-12-31T03:57:55.996Z,8.73
2017-12-31T03:58:54.866Z,8.70
2017-12-31T03:59:54.732Z,8.69
2017-12-31T04:00:54.666Z,8.69
2017-12-31T04:01:55.613Z,8.67
2017-12-31T04:03:40.905Z,8.67
2017-12-31T04:04:41.280Z,8.66
2017-12-31T04:05:41.310Z,8.66
2017-12-31T04:06:41.819Z,8.64
2017-12-31T04:07:41.314Z,8.63
2017-12-31T04:08:41.442Z,8.66
2017-12-31T04:09:41.668Z,8.63
2017-12-31T04:10:41.592Z,8.61
2017-12-31T04:11:41.925Z,8.61
2017-12-31T04:12:40.911Z,8.60
2017-12-31T04:13:41.376Z,8.60
2017-12-31T04:14:41.569Z,8.60
2017-12-31T04:15:41.547Z,8.58
2017-12-31T04:16:41.417Z,8.58
2017-12-31T04:17:41.760Z,8.58
2017-12-31T04:18:41.540Z,8.56
2017-12-31T04:19:41.912Z,8.56
2017-12-31T04:20:41.842Z,8.53
2017-12-31T04:21:40.905Z,8.56
2017-12-31T04:22:41.267Z,8.56
2017-12-31T04:23:41.580Z,8.53
2017-12-31T04:24:41.656Z,8.53
2017-12-31T04:26:03.088Z,8.53
2017-12-31T04:27:04.420Z,8.52
2017-12-31T04:28:03.851Z,8.52
2017-12-31T04:29:25.810Z,8.49
2017-12-31T04:30:26.764Z,8.51
2017-12-31T04:31:26.762Z,8.51
2017-12-31T04:32:27.025Z,8.49
2017-12-31T04:33:26.450Z,8.49
2017-12-31T04:34:26.834Z,8.48
2017-12-31T04:35:27.137Z,8.48
2017-12-31T04:36:25.783Z,8.48
2017-12-31T04:37:26.296Z,8.48
2017-12-31T04:38:26.076Z,8.48
2017-12-31T04:39:25.965Z,8.48
2017-12-31T04:40:26.474Z,8.46
2017-12-31T04:41:26.447Z,8.46
2017-12-31T04:42:26.165Z,8.46
2017-12-31T04:43:26.320Z,8.46
2017-12-31T04:44:26.647Z,8.46
2017-12-31T04:45:26.519Z,8.45
2017-12-31T04:46:26.649Z,8.45
2017-12-31T04:47:26.768Z,8.44
2017-12-31T04:48:26.455Z,8.48
2017-12-31T04:49:48.804Z,8.46
2017-12-31T04:50:48.418Z,8.46
2017-12-31T04:51:48.550Z,8.46
2017-12-31T04:52:48.151Z,8.46
2017-12-31T04:53:49.199Z,8.46
2017-12-31T04:54:48.949Z,8.46
2017-12-31T04:55:49.310Z,8.46
2017-12-31T04:56:49.520Z,8.46
2017-12-31T04:57:48.919Z,8.45
2017-12-31T04:59:32.800Z,8.48
2017-12-31T05:00:34.115Z,8.49
2017-12-31T05:01:33.156Z,8.46
2017-12-31T05:02:34.379Z,8.48
2017-12-31T05:03:33.698Z,8.49
2017-12-31T05:04:33.731Z,8.49
2017-12-31T05:05:34.039Z,8.49
2017-12-31T05:06:33.432Z,8.49
2017-12-31T05:07:33.461Z,8.48
2017-12-31T05:08:33.666Z,8.46
2017-12-31T05:09:33.684Z,8.48
2017-12-31T05:10:34.167Z,8.48
2017-12-31T05:11:32.847Z,8.48
2017-12-31T05:12:34.294Z,8.46
2017-12-31T05:13:33.782Z,8.48
2017-12-31T05:14:34.219Z,8.46
2017-12-31T05:15:33.208Z,8.48
2017-12-31T05:16:33.487Z,8.48
2017-12-31T05:17:33.593Z,8.48
2017-12-31T05:18:33.884Z,8.48
2017-12-31T05:19:55.749Z,8.48
2017-12-31T05:20:56.610Z,8.48
2017-12-31T05:21:56.931Z,8.48
2017-12-31T05:22:55.986Z,8.48
2017-12-31T05:23:56.997Z,8.46
2017-12-31T05:24:56.463Z,8.46
2017-12-31T05:25:56.335Z,8.46
2017-12-31T05:26:56.801Z,8.46
2017-12-31T05:27:56.878Z,8.46
2017-12-31T05:28:57.310Z,8.46
2017-12-31T05:29:56.194Z,8.46
2017-12-31T05:30:55.789Z,8.48
2017-12-31T05:31:56.945Z,8.48
2017-12-31T05:32:57.378Z,8.46
2017-12-31T05:33:56.466Z,8.46
2017-12-31T05:34:56.061Z,8.48
2017-12-31T05:35:56.400Z,8.48
2017-12-31T05:36:56.789Z,8.49
2017-12-31T05:37:56.972Z,8.51
2017-12-31T05:38:56.429Z,8.52
2017-12-31T05:40:19.155Z,8.56
2017-12-31T05:41:19.688Z,8.56
2017-12-31T05:42:19.570Z,8.60
2017-12-31T05:43:20.051Z,8.61
2017-12-31T05:44:19.120Z,8.63
2017-12-31T05:45:18.753Z,8.64
2017-12-31T05:46:20.003Z,8.66
2017-12-31T05:47:18.959Z,8.67
2017-12-31T05:48:19.292Z,8.70
2017-12-31T05:49:19.521Z,8.71
2017-12-31T05:50:19.877Z,8.71
2017-12-31T05:51:19.541Z,8.76
2017-12-31T05:52:19.472Z,8.76
2017-12-31T05:53:19.511Z,8.76
2017-12-31T05:54:19.899Z,8.78
2017-12-31T05:55:19.353Z,8.78
2017-12-31T05:56:19.590Z,8.81
2017-12-31T05:57:20.042Z,8.79
2017-12-31T05:58:19.451Z,8.79
2017-12-31T05:59:19.406Z,8.79
2017-12-31T06:00:19.673Z,8.82
2017-12-31T06:01:19.195Z,8.85
2017-12-31T06:02:19.054Z,8.85
2017-12-31T06:03:19.301Z,8.84
2017-12-31T06:04:19.788Z,8.87
2017-12-31T06:05:19.347Z,8.87
2017-12-31T06:06:19.743Z,8.88
2017-12-31T06:07:42.220Z,8.89
2017-12-31T06:08:42.150Z,8.91
2017-12-31T06:09:41.987Z,8.94
2017-12-31T06:10:43.224Z,8.95
2017-12-31T06:11:41.786Z,8.95
2017-12-31T06:12:42.258Z,8.97
2017-12-31T06:13:42.691Z,8.97
2017-12-31T06:14:43.149Z,8.99
2017-12-31T06:15:42.094Z,9.00
2017-12-31T06:16:41.743Z,9.02
2017-12-31T06:17:43.033Z,9.02
2017-12-31T06:18:42.541Z,9.03
2017-12-31T06:19:42.750Z,9.04
2017-12-31T06:20:43.090Z,9.06
2017-12-31T06:21:41.679Z,9.11
2017-12-31T06:22:42.596Z,9.11
2017-12-31T06:23:42.852Z,9.13
2017-12-31T06:24:42.418Z,9.14
2017-12-31T06:25:42.457Z,9.16
2017-12-31T06:26:42.883Z,9.19
2017-12-31T06:27:43.153Z,9.22
2017-12-31T06:28:42.571Z,9.25
2017-12-31T06:29:42.681Z,9.29
2017-12-31T06:30:42.644Z,9.31
2017-12-31T06:31:42.534Z,9.32
2017-12-31T06:32:42.756Z,9.37
2017-12-31T06:33:43.083Z,9.40
2017-12-31T06:34:42.447Z,9.44
2017-12-31T06:35:42.906Z,9.46
2017-12-31T06:36:41.937Z,9.46
2017-12-31T06:37:42.232Z,9.48
2017-12-31T06:38:42.660Z,9.48
2017-12-31T06:39:42.573Z,9.50
2017-12-31T06:40:43.044Z,9.51
2017-12-31T06:41:42.245Z,9.55
2017-12-31T06:42:41.882Z,9.59
2017-12-31T06:43:42.220Z,9.59
2017-12-31T06:44:42.122Z,9.62
2017-12-31T06:45:42.462Z,9.62
2017-12-31T06:46:42.581Z,9.62
2017-12-31T06:47:43.116Z,9.66
2017-12-31T06:48:41.773Z,9.72
2017-12-31T06:49:43.115Z,9.72
2017-12-31T06:50:42.008Z,9.73
2017-12-31T06:51:42.393Z,9.74
2017-12-31T06:52:42.858Z,9.77
2017-12-31T06:53:43.095Z,9.80
2017-12-31T06:54:42.063Z,9.84
2017-12-31T06:55:42.303Z,9.86
2017-12-31T06:56:41.901Z,9.89
2017-12-31T06:57:42.304Z,9.92
2017-12-31T06:58:42.693Z,9.95
2017-12-31T06:59:42.345Z,9.97
2017-12-31T07:00:42.716Z,9.97
2017-12-31T07:01:42.278Z,9.99
2017-12-31T07:02:42.577Z,9.99
2017-12-31T07:03:43.240Z,10.02
2017-12-31T07:04:42.226Z,10.05
2017-12-31T07:05:42.544Z,10.07
2017-12-31T07:06:42.663Z,10.10
2017-12-31T07:07:42.287Z,10.13
2017-12-31T07:08:42.092Z,10.17
2017-12-31T07:09:42.006Z,10.17
2017-12-31T07:10:42.356Z,10.19
2017-12-31T07:11:42.833Z,10.19
2017-12-31T07:12:42.325Z,10.25
2017-12-31T07:13:42.777Z,10.28
2017-12-31T07:14:43.217Z,10.28
2017-12-31T07:15:41.841Z,10.33
2017-12-31T07:16:41.896Z,10.35
2017-12-31T07:17:42.025Z,10.37
2017-12-31T07:18:42.330Z,10.35
2017-12-31T07:19:42.332Z,10.40
2017-12-31T07:20:42.696Z,10.46
2017-12-31T07:21:43.056Z,10.48
2017-12-31T07:22:42.505Z,10.53
2017-12-31T07:23:42.430Z,10.56
2017-12-31T07:24:42.241Z,10.57
2017-12-31T07:25:42.613Z,10.61
2017-12-31T07:26:43.145Z,10.64
2017-12-31T07:27:42.185Z,10.67
2017-12-31T07:28:42.753Z,10.67
2017-12-31T07:29:41.973Z,10.68
2017-12-31T07:30:42.502Z,10.72
2017-12-31T07:31:42.560Z,10.74
2017-12-31T07:32:43.041Z,10.74
2017-12-31T07:33:42.382Z,10.78
2017-12-31T07:34:42.853Z,10.78
2017-12-31T07:35:42.407Z,10.79
2017-12-31T07:36:42.746Z,10.82
2017-12-31T07:37:42.699Z,10.84
2017-12-31T07:38:42.940Z,10.86
2017-12-31T07:39:42.529Z,10.89
2017-12-31T07:40:42.769Z,10.90
2017-12-31T07:41:42.015Z,10.90
2017-12-31T07:42:42.727Z,10.89
2017-12-31T07:43:42.294Z,10.90
2017-12-31T07:44:42.418Z,10.92
2017-12-31T07:45:42.637Z,10.92
2017-12-31T07:46:42.681Z,10.92
2017-12-31T07:47:43.187Z,10.93
2017-12-31T07:48:41.975Z,10.97
2017-12-31T07:49:41.792Z,10.97
2017-12-31T07:50:42.517Z,10.99
2017-12-31T07:51:42.540Z,11.00
2017-12-31T07:52:42.781Z,10.99
2017-12-31T07:53:41.716Z,10.99
2017-12-31T07:54:43.173Z,11.00
2017-12-31T07:55:42.962Z,11.00
2017-12-31T07:56:42.141Z,11.00
2017-12-31T07:57:42.522Z,11.00
2017-12-31T07:58:42.414Z,11.00
2017-12-31T07:59:42.577Z,11.00
2017-12-31T08:00:43.097Z,10.99
2017-12-31T08:01:42.515Z,11.00
2017-12-31T08:02:43.003Z,11.04
2017-12-31T08:03:41.771Z,11.05
2017-12-31T08:04:42.303Z,11.04
2017-12-31T08:05:42.793Z,11.07
2017-12-31T08:06:41.924Z,11.05
2017-12-31T08:07:42.308Z,11.04
2017-12-31T08:08:42.975Z,11.04
2017-12-31T08:09:42.035Z,11.05
2017-12-31T08:10:42.151Z,11.02
2017-12-31T08:11:42.437Z,11.04
2017-12-31T08:12:42.194Z,11.02
2017-12-31T08:13:42.170Z,10.99
2017-12-31T08:14:42.147Z,11.00
2017-12-31T08:15:42.685Z,11.00
2017-12-31T08:16:42.783Z,11.02
2017-12-31T08:17:42.025Z,11.04
2017-12-31T08:18:42.135Z,11.05
2017-12-31T08:19:42.122Z,11.05
2017-12-31T08:20:42.638Z,11.04
2017-12-31T08:21:42.905Z,11.05
2017-12-31T08:22:41.776Z,11.07
2017-12-31T08:23:42.839Z,11.08
2017-12-31T08:24:41.700Z,11.08
2017-12-31T08:25:41.608Z,11.08
2017-12-31T08:26:42.153Z,11.07
2017-12-31T08:27:42.464Z,11.05
2017-12-31T08:28:43.044Z,11.07
2017-12-31T08:29:41.781Z,11.05
2017-12-31T08:30:41.548Z,11.04
2017-12-31T08:31:43.005Z,11.04
2017-12-31T08:32:42.411Z,11.02
2017-12-31T08:33:43.150Z,11.00
2017-12-31T08:34:42.290Z,11.02
2017-12-31T08:35:42.896Z,11.00
2017-12-31T08:36:41.607Z,11.00
2017-12-31T08:37:42.758Z,11.00
2017-12-31T08:38:41.983Z,11.00
2017-12-31T08:39:42.112Z,11.00
2017-12-31T08:40:42.481Z,11.02
2017-12-31T08:41:42.318Z,10.99
2017-12-31T08:42:42.865Z,10.99
2017-12-31T08:43:42.217Z,11.02
2017-12-31T08:44:42.589Z,11.07
2017-12-31T08:45:42.440Z,11.07
2017-12-31T08:46:42.130Z,11.05
2017-12-31T08:47:41.941Z,11.04
2017-12-31T08:48:42.736Z,11.04
2017-12-31T08:49:41.639Z,11.02
2017-12-31T08:50:42.262Z,11.02
2017-12-31T08:51:42.091Z,11.02
2017-12-31T08:52:41.933Z,11.04
2017-12-31T08:53:42.025Z,11.04
2017-12-31T08:54:42.360Z,11.00
2017-12-31T08:55:42.523Z,11.00
2017-12-31T08:56:42.959Z,11.04
2017-12-31T08:57:41.783Z,11.00
2017-12-31T08:58:42.004Z,11.02
2017-12-31T08:59:41.714Z,11.04
2017-12-31T09:00:41.529Z,11.05
2017-12-31T09:01:42.605Z,11.07
2017-12-31T09:02:42.337Z,11.07
2017-12-31T09:03:42.600Z,11.10
2017-12-31T09:04:43.218Z,11.10
2017-12-31T09:05:42.410Z,11.12
2017-12-31T09:06:42.829Z,11.12
2017-12-31T09:07:42.298Z,11.12
2017-12-31T09:08:42.895Z,11.12
2017-12-31T09:09:42.259Z,11.12
2017-12-31T09:10:42.797Z,11.15
2017-12-31T09:11:42.222Z,11.17
2017-12-31T09:12:42.625Z,11.15
2017-12-31T09:13:43.004Z,11.15
2017-12-31T09:14:42.471Z,11.17
2017-12-31T09:15:42.964Z,11.15
2017-12-31T09:16:42.434Z,11.15
2017-12-31T09:17:42.899Z,11.17
2017-12-31T09:18:42.403Z,11.15
2017-12-31T09:19:42.900Z,11.17
2017-12-31T09:20:42.350Z,11.18
2017-12-31T09:22:07.923Z,11.17
2017-12-31T09:23:09.268Z,11.17
2017-12-31T09:24:07.944Z,11.17
2017-12-31T09:25:08.363Z,11.18
2017-12-31T09:26:07.868Z,11.19
2017-12-31T09:27:08.480Z,11.22
2017-12-31T09:28:07.245Z,11.23
2017-12-31T09:29:08.139Z,11.22
2017-12-31T09:30:08.745Z,11.22
2017-12-31T09:31:07.994Z,11.18
2017-12-31T09:32:08.570Z,11.19
2017-12-31T09:33:07.636Z,11.19
2017-12-31T09:34:07.637Z,11.22
2017-12-31T09:35:07.507Z,11.26
2017-12-31T09:36:08.102Z,11.26
2017-12-31T09:37:08.011Z,11.29
2017-12-31T09:38:08.600Z,11.30
2017-12-31T09:39:08.226Z,11.33
2017-12-31T09:40:08.768Z,11.33
2017-12-31T09:41:08.081Z,11.32
2017-12-31T09:42:08.797Z,11.32
2017-12-31T09:43:09.154Z,11.37
2017-12-31T09:44:08.349Z,11.40
2017-12-31T09:45:07.863Z,11.40
2017-12-31T09:46:30.699Z,11.41
2017-12-31T09:47:30.623Z,11.41
2017-12-31T09:48:30.592Z,11.44
2017-12-31T09:49:31.133Z,11.45
2017-12-31T09:50:31.653Z,11.51
2017-12-31T09:51:30.459Z,11.55
2017-12-31T09:52:30.597Z,11.63
2017-12-31T09:53:30.836Z,11.66
2017-12-31T09:54:31.473Z,11.60
2017-12-31T09:55:30.635Z,11.55
2017-12-31T09:56:53.491Z,11.54
2017-12-31T09:57:54.092Z,11.57
2017-12-31T09:58:53.518Z,11.62
2017-12-31T09:59:54.700Z,11.62
2017-12-31T10:00:53.910Z,11.62
2017-12-31T10:01:54.068Z,11.59
2017-12-31T10:02:53.657Z,11.55
2017-12-31T10:03:53.778Z,11.54
2017-12-31T10:04:54.272Z,11.57
2017-12-31T10:05:53.258Z,11.60
2017-12-31T10:06:53.454Z,11.60
2017-12-31T10:07:54.533Z,11.62
2017-12-31T10:08:54.006Z,11.65
2017-12-31T10:09:53.309Z,11.70
2017-12-31T10:10:54.279Z,11.72
2017-12-31T10:11:53.803Z,11.75
2017-12-31T10:12:54.111Z,11.80
2017-12-31T10:13:53.467Z,11.77
2017-12-31T10:14:53.910Z,11.73
2017-12-31T10:15:54.766Z,11.70
2017-12-31T10:16:54.175Z,11.70
2017-12-31T10:17:53.584Z,11.70
2017-12-31T10:18:53.494Z,11.70
2017-12-31T10:19:54.634Z,11.70
2017-12-31T10:20:55.301Z,11.70
2017-12-31T10:21:53.718Z,11.68
2017-12-31T10:22:53.656Z,11.66
2017-12-31T10:23:54.048Z,11.66
2017-12-31T10:24:54.037Z,11.65
2017-12-31T10:26:17.157Z,11.65
2017-12-31T10:27:18.534Z,11.62
2017-12-31T10:28:18.068Z,11.60
2017-12-31T10:29:17.563Z,11.60
2017-12-31T10:30:17.471Z,11.60
2017-12-31T10:31:17.584Z,11.55
2017-12-31T10:32:17.984Z,11.54
2017-12-31T10:33:17.471Z,11.54
2017-12-31T10:34:17.705Z,11.51
2017-12-31T10:35:18.218Z,11.50
2017-12-31T10:36:17.318Z,11.48
2017-12-31T10:37:18.007Z,11.48
2017-12-31T10:38:17.455Z,11.50
2017-12-31T10:39:17.923Z,11.50
2017-12-31T10:40:18.429Z,11.47
2017-12-31T10:41:18.032Z,11.45
2017-12-31T10:42:17.545Z,11.44
2017-12-31T10:43:18.188Z,11.43
2017-12-31T10:44:17.924Z,11.43
2017-12-31T10:45:17.614Z,11.43
2017-12-31T10:46:18.267Z,11.45
2017-12-31T10:47:17.835Z,11.47
2017-12-31T10:48:18.357Z,11.50
2017-12-31T10:49:40.046Z,11.51
2017-12-31T10:50:40.156Z,11.48
2017-12-31T10:51:40.594Z,11.50
2017-12-31T10:53:01.699Z,11.52
2017-12-31T10:54:03.857Z,11.54
2017-12-31T10:55:01.627Z,11.51
2017-12-31T10:56:03.251Z,11.50
2017-12-31T10:57:02.855Z,11.50
2017-12-31T10:58:02.330Z,11.50
2017-12-31T10:59:02.817Z,11.48
2017-12-31T11:00:02.549Z,11.50
2017-12-31T11:01:03.018Z,11.50
2017-12-31T11:02:02.391Z,11.50
2017-12-31T11:03:02.287Z,11.51
2017-12-31T11:04:02.741Z,11.50
2017-12-31T11:05:03.228Z,11.48
2017-12-31T11:06:02.128Z,11.48
2017-12-31T11:07:02.354Z,11.48
2017-12-31T11:08:46.207Z,11.52
2017-12-31T11:10:30.596Z,11.54
2017-12-31T11:11:30.990Z,11.55
2017-12-31T11:12:31.372Z,11.55
2017-12-31T11:13:30.739Z,11.55
2017-12-31T11:14:31.104Z,11.57
2017-12-31T11:15:31.726Z,11.57
2017-12-31T11:16:31.541Z,11.57
2017-12-31T11:17:32.060Z,11.57
2017-12-31T11:18:31.553Z,11.54
2017-12-31T11:19:31.368Z,11.55
2017-12-31T11:20:31.090Z,11.55
2017-12-31T11:21:31.629Z,11.57
2017-12-31T11:22:30.950Z,11.57
2017-12-31T11:23:32.523Z,11.55
2017-12-31T11:24:30.535Z,11.60
2017-12-31T11:25:31.036Z,11.62
2017-12-31T11:26:31.662Z,11.62
2017-12-31T11:27:31.360Z,11.63
2017-12-31T11:28:33.029Z,11.65
2017-12-31T11:29:31.080Z,11.68
2017-12-31T11:30:31.146Z,11.69
2017-12-31T11:31:32.013Z,11.75
2017-12-31T11:32:32.449Z,11.78
2017-12-31T11:33:30.952Z,11.80
2017-12-31T11:34:31.359Z,11.78
2017-12-31T11:35:31.213Z,11.80
2017-12-31T11:36:31.853Z,11.84
2017-12-31T11:37:31.377Z,11.86
2017-12-31T11:38:31.577Z,11.90
2017-12-31T11:39:53.565Z,11.97
2017-12-31T11:40:53.687Z,11.99
2017-12-31T11:41:55.359Z,11.99
2017-12-31T11:42:53.749Z,11.99
2017-12-31T11:43:54.141Z,12.03
2017-12-31T11:44:53.510Z,12.07
2017-12-31T11:45:54.036Z,12.07
2017-12-31T11:46:52.956Z,12.07
2017-12-31T11:47:54.275Z,12.09
2017-12-31T11:48:53.809Z,12.15
2017-12-31T11:49:54.254Z,12.18
2017-12-31T11:50:53.816Z,12.20
2017-12-31T11:51:53.827Z,12.27
2017-12-31T11:52:54.413Z,12.32
2017-12-31T11:53:53.902Z,12.32
2017-12-31T11:54:53.957Z,12.39
2017-12-31T11:55:53.622Z,12.37
2017-12-31T11:56:54.040Z,12.40
2017-12-31T11:57:53.502Z,12.43
2017-12-31T11:58:53.643Z,12.49
2017-12-31T12:00:16.451Z,12.53
2017-12-31T12:01:17.815Z,12.55
2017-12-31T12:02:17.671Z,12.65
2017-12-31T12:03:18.664Z,12.67
2017-12-31T12:04:17.150Z,12.68
2017-12-31T12:05:16.621Z,12.68
2017-12-31T12:06:16.894Z,12.64
2017-12-31T12:07:16.594Z,12.64
2017-12-31T12:08:17.148Z,12.65
2017-12-31T12:09:16.461Z,12.64
2017-12-31T12:10:17.565Z,12.67
2017-12-31T12:11:17.233Z,12.68
2017-12-31T12:12:16.406Z,12.65
2017-12-31T12:13:16.719Z,12.73
2017-12-31T12:14:17.821Z,12.79
2017-12-31T12:15:17.382Z,12.78
2017-12-31T12:16:16.809Z,12.73
2017-12-31T12:17:17.282Z,12.76
2017-12-31T12:19:00.779Z,12.85
2017-12-31T12:20:01.440Z,12.98
2017-12-31T12:21:02.549Z,13.09
2017-12-31T12:22:05.680Z,13.11
2017-12-31T12:23:01.418Z,13.05
2017-12-31T12:24:01.986Z,13.03
2017-12-31T12:25:03.269Z,13.00
2017-12-31T12:26:02.335Z,12.94
2017-12-31T12:27:01.796Z,12.97
2017-12-31T12:28:00.618Z,12.97
2017-12-31T12:29:01.131Z,12.97
2017-12-31T12:30:03.043Z,12.94
2017-12-31T12:31:02.243Z,12.93
2017-12-31T12:32:03.643Z,12.94
2017-12-31T12:33:01.070Z,12.95
2017-12-31T12:34:01.747Z,12.94
2017-12-31T12:35:02.458Z,12.98
2017-12-31T12:36:02.017Z,13.01
2017-12-31T12:37:02.495Z,13.03
2017-12-31T12:38:01.871Z,13.04
2017-12-31T12:39:02.298Z,13.08
2017-12-31T12:40:01.831Z,13.04
2017-12-31T12:41:01.166Z,13.04
2017-12-31T12:42:02.048Z,13.04
2017-12-31T12:43:01.804Z,13.05
2017-12-31T12:44:01.114Z,13.13
2017-12-31T12:45:02.171Z,13.15
2017-12-31T12:46:02.389Z,13.15
2017-12-31T12:47:01.564Z,13.19
2017-12-31T12:48:01.011Z,13.20
2017-12-31T12:49:02.884Z,13.22
2017-12-31T12:50:01.480Z,13.27
2017-12-31T12:51:01.939Z,13.30
2017-12-31T12:52:01.658Z,13.33
2017-12-31T12:53:01.639Z,13.30
2017-12-31T12:54:02.088Z,13.28
2017-12-31T12:55:01.474Z,13.20
2017-12-31T12:56:01.305Z,13.19
2017-12-31T12:57:02.606Z,13.19
2017-12-31T12:58:01.279Z,13.20
2017-12-31T12:59:01.903Z,13.23
2017-12-31T13:00:01.384Z,13.22
2017-12-31T13:01:01.437Z,13.23
2017-12-31T13:02:02.059Z,13.23
2017-12-31T13:03:01.746Z,13.22
2017-12-31T13:04:02.735Z,13.20
2017-12-31T13:05:01.248Z,13.22
2017-12-31T13:06:01.671Z,13.19
2017-12-31T13:07:01.166Z,13.15
2017-12-31T13:08:02.016Z,13.20
2017-12-31T13:09:02.218Z,13.22
2017-12-31T13:10:02.858Z,13.22
2017-12-31T13:11:02.092Z,13.28
2017-12-31T13:12:01.890Z,13.35
2017-12-31T13:13:02.195Z,13.47
2017-12-31T13:14:08.116Z,13.50
2017-12-31T13:15:13.560Z,13.47
2017-12-31T13:16:11.939Z,13.44
2017-12-31T13:17:09.731Z,13.41
2017-12-31T13:18:11.172Z,13.42
2017-12-31T13:19:02.147Z,13.47
2017-12-31T13:20:05.523Z,13.53
2017-12-31T13:21:01.254Z,13.56